Time;durP1;ratioP1;P1;durP2;ratioP2;P2;SDS_P1;SDS_P2;PMS_P1;PMS_P2;Temp;Humidity;BMP_temperature;BMP_pressure;BME280_temperature;BME280_humidity;BME280_pressure;Samples;Min_cycle;Max_cycle;Signal;HPM_P1;HPM_P2
2023/05/08 00:02:13;;;;;;;15.25;13.95;;;12.80;99.90;;;;;;6118509;23;20420;-90
2023/05/08 00:04:38;;;;;;;15.70;14.40;;;13.40;99.90;;;;;;6096537;23;20815;-91
2023/05/08 00:07:04;;;;;;;15.80;14.40;;;13.10;99.90;;;;;;6093592;23;20380;-92
2023/05/08 00:09:30;;;;;;;15.85;14.57;;;13.40;99.90;;;;;;6096450;23;20441;-92
2023/05/08 00:11:55;;;;;;;16.00;14.70;;;13.40;99.90;;;;;;6119828;23;20376;-94
2023/05/08 00:14:21;;;;;;;16.70;15.30;;;12.80;99.90;;;;;;6119855;23;20373;-92
2023/05/08 00:16:47;;;;;;;16.70;15.30;;;12.90;99.90;;;;;;6095983;23;20453;-92
2023/05/08 00:19:12;;;;;;;16.43;15.00;;;12.70;99.90;;;;;;6118021;23;20365;-92
2023/05/08 00:21:38;;;;;;;16.50;15.10;;;12.80;99.90;;;;;;6096109;23;20369;-91
2023/05/08 00:24:04;;;;;;;17.53;15.93;;;12.50;99.90;;;;;;6118646;23;20365;-91
2023/05/08 00:26:30;;;;;;;16.67;15.27;;;12.20;99.90;;;;;;6095581;23;20404;-90
2023/05/08 00:28:55;;;;;;;17.58;16.00;;;12.30;99.90;;;;;;6093324;23;20463;-89
2023/05/08 00:31:21;;;;;;;17.63;15.97;;;12.40;99.90;;;;;;6096108;23;20456;-92
2023/05/08 00:33:47;;;;;;;17.67;16.07;;;12.00;99.90;;;;;;6071396;23;20381;-92
2023/05/08 00:36:14;;;;;;;18.75;17.13;;;11.50;99.90;;;;;;6094582;23;20424;-93
2023/05/08 00:38:40;;;;;;;18.45;16.85;;;11.90;99.90;;;;;;6096262;23;20377;-92
2023/05/08 00:41:05;;;;;;;18.05;16.52;;;12.40;99.90;;;;;;6093148;23;20884;-91
2023/05/08 00:43:32;;;;;;;18.07;16.47;;;12.10;99.90;;;;;;6096103;23;20377;-92
2023/05/08 00:46:00;;;;;;;18.33;16.73;;;12.00;99.90;;;;;;6093687;23;20393;-93
2023/05/08 00:48:29;;;;;;;18.53;16.93;;;12.10;99.90;;;;;;6072117;23;20369;-92
2023/05/08 00:50:56;;;;;;;18.20;16.60;;;11.80;99.90;;;;;;6094551;23;20401;-93
2023/05/08 00:53:24;;;;;;;19.05;17.35;;;12.20;99.90;;;;;;6071511;23;20385;-92
2023/05/08 00:55:51;;;;;;;18.83;17.20;;;12.30;99.90;;;;;;6095771;23;20376;-95
2023/05/08 00:58:19;;;;;;;19.37;17.57;;;11.40;99.90;;;;;;6094262;23;20395;-93
2023/05/08 01:00:46;;;;;;;19.17;17.38;;;11.80;99.90;;;;;;6071940;23;20385;-94
2023/05/08 01:03:13;;;;;;;19.42;17.73;;;11.90;99.90;;;;;;6093381;23;20369;-92
2023/05/08 01:05:39;;;;;;;19.50;17.70;;;11.50;99.90;;;;;;6073997;23;20428;-93
2023/05/08 01:08:05;;;;;;;20.17;18.37;;;11.90;99.90;;;;;;6134211;23;20382;-93
2023/05/08 01:10:56;;;;;;;20.60;18.70;;;11.50;99.90;;;;;;6179514;23;20966;-91
2023/05/08 01:13:42;;;;;;;21.40;19.40;;;11.50;99.90;;;;;;6129897;23;20369;-91
2023/05/08 01:16:21;;;;;;;19.80;18.03;;;11.50;99.90;;;;;;6127198;23;20876;-92
2023/05/08 01:19:32;;;;;;;20.55;18.75;;;11.50;99.90;;;;;;6154695;23;20377;-93
2023/05/08 01:22:42;;;;;;;21.15;19.25;;;11.20;99.90;;;;;;6129895;23;20383;-92
2023/05/08 01:25:15;;;;;;;21.40;19.50;;;11.30;99.90;;;;;;6146217;23;20413;-92
2023/05/08 01:28:00;;;;;;;22.13;20.23;;;11.30;99.90;;;;;;6130019;23;20370;-93
2023/05/08 01:30:50;;;;;;;22.65;20.63;;;11.30;99.90;;;;;;6128925;23;20611;-92
2023/05/08 01:33:28;;;;;;;22.10;20.08;;;11.30;99.90;;;;;;6125325;23;20388;-93
2023/05/08 01:36:17;;;;;;;21.67;19.67;;;11.60;99.90;;;;;;6128515;23;20385;-92
2023/05/08 01:39:20;;;;;;;22.27;20.27;;;11.30;99.90;;;;;;6160689;23;20405;-91
2023/05/08 01:42:01;;;;;;;22.65;20.55;;;11.10;99.90;;;;;;6126767;23;20389;-92
2023/05/08 01:44:44;;;;;;;22.58;20.35;;;11.10;99.90;;;;;;6129701;23;20381;-93
2023/05/08 01:47:11;;;;;;;22.15;20.15;;;11.10;99.90;;;;;;6127598;23;20765;-95
2023/05/08 01:49:42;;;;;;;21.73;19.73;;;11.10;99.90;;;;;;6153653;23;20369;-92
2023/05/08 01:52:20;;;;;;;22.27;20.27;;;11.20;99.90;;;;;;6129337;23;20373;-94
2023/05/08 01:54:54;;;;;;;22.35;20.35;;;11.20;99.90;;;;;;6126658;23;20932;-92
2023/05/08 01:57:21;;;;;;;22.47;20.47;;;10.90;99.90;;;;;;6129838;23;20393;-92
2023/05/08 01:59:48;;;;;;;23.27;21.17;;;11.30;99.90;;;;;;6126528;23;20416;-93
2023/05/08 02:02:15;;;;;;;22.77;20.67;;;11.00;99.90;;;;;;6129153;23;20453;-93
2023/05/08 02:04:43;;;;;;;23.67;21.42;;;11.00;99.90;;;;;;6152324;23;20369;-95
2023/05/08 02:07:10;;;;;;;23.63;21.52;;;11.10;99.90;;;;;;6152670;23;20393;-92
2023/05/08 02:09:36;;;;;;;23.07;20.93;;;11.10;99.90;;;;;;6179276;23;20376;-94
2023/05/08 02:12:05;;;;;;;22.77;20.67;;;10.90;99.90;;;;;;6152706;23;20692;-92
2023/05/08 02:14:36;;;;;;;24.35;22.15;;;10.90;99.90;;;;;;6155200;23;20396;-93
2023/05/08 02:17:04;;;;;;;23.30;21.10;;;11.10;99.90;;;;;;6126570;23;20898;-93
2023/05/08 02:19:32;;;;;;;23.83;21.60;;;10.90;99.90;;;;;;6129463;23;20369;-92
2023/05/08 02:21:59;;;;;;;23.88;21.67;;;11.10;99.90;;;;;;6152254;23;20375;-92
2023/05/08 02:24:25;;;;;;;22.80;20.80;;;11.60;99.90;;;;;;6128096;23;20384;-92
2023/05/08 02:26:53;;;;;;;22.70;20.58;;;10.90;99.90;;;;;;6153984;23;20435;-93
2023/05/08 02:29:21;;;;;;;24.17;21.80;;;10.70;99.90;;;;;;6126643;23;20373;-93
2023/05/08 02:31:48;;;;;;;23.57;21.37;;;10.90;99.90;;;;;;6154168;23;20362;-93
2023/05/08 02:34:15;;;;;;;23.43;21.23;;;11.40;99.90;;;;;;6126930;23;20401;-92
2023/05/08 02:36:42;;;;;;;22.80;20.70;;;10.40;99.90;;;;;;6129223;23;20377;-93
2023/05/08 02:39:12;;;;;;;23.63;21.42;;;10.50;99.90;;;;;;6126607;23;20365;-93
2023/05/08 02:41:40;;;;;;;23.90;21.60;;;10.60;99.90;;;;;;6128874;23;20850;-94
2023/05/08 02:44:06;;;;;;;23.85;21.65;;;10.40;99.90;;;;;;6153208;23;20605;-93
2023/05/08 02:47:00;;;;;;;25.60;23.23;;;10.50;99.90;;;;;;6176731;23;20743;-92
2023/05/08 02:49:45;;;;;;;24.92;22.52;;;10.40;99.90;;;;;;6074625;23;20384;-92
2023/05/08 02:52:31;;;;;;;25.13;22.93;;;10.40;99.90;;;;;;6126601;23;20377;-92
2023/05/08 02:55:10;;;;;;;25.08;22.77;;;10.40;99.90;;;;;;6127830;23;20843;-94
2023/05/08 02:58:18;;;;;;;25.60;23.20;;;10.40;99.90;;;;;;6129281;23;20381;-91
2023/05/08 03:00:55;;;;;;;25.55;23.13;;;10.30;99.90;;;;;;6126582;23;20377;-91
2023/05/08 03:03:25;;;;;;;25.27;22.98;;;10.40;99.90;;;;;;6128642;23;20464;-93
2023/05/08 03:13:54;;;;;;;25.60;23.25;;;10.20;99.90;;;;;;6175508;23;20387;-92
2023/05/08 03:16:38;;;;;;;24.98;22.77;;;10.10;99.90;;;;;;6156127;23;20366;-91
2023/05/08 03:19:18;;;;;;;26.65;24.05;;;10.40;99.90;;;;;;6128390;23;20668;-92
2023/05/08 03:22:05;;;;;;;26.00;23.60;;;10.30;99.90;;;;;;6154781;23;20698;-93
2023/05/08 03:24:33;;;;;;;26.33;23.83;;;10.10;99.90;;;;;;6128892;23;20835;-93
2023/05/08 03:27:01;;;;;;;26.23;23.73;;;10.10;99.90;;;;;;6126984;23;20370;-94
2023/05/08 03:29:28;;;;;;;26.27;23.70;;;10.30;99.90;;;;;;6128169;23;20377;-92
2023/05/08 03:31:56;;;;;;;26.13;23.73;;;10.90;99.90;;;;;;6129160;23;20404;-92
2023/05/08 03:34:23;;;;;;;25.80;23.42;;;9.90;99.90;;;;;;6126483;23;20374;-95
2023/05/08 03:36:50;;;;;;;24.88;22.58;;;10.50;99.90;;;;;;6128712;23;20401;-93
2023/05/08 03:39:16;;;;;;;26.83;24.25;;;10.20;99.90;;;;;;6151608;23;20876;-92
2023/05/08 03:41:42;;;;;;;27.05;24.45;;;10.70;99.90;;;;;;6129017;23;20404;-93
2023/05/08 03:44:08;;;;;;;26.02;23.52;;;10.60;99.90;;;;;;6151993;23;20480;-93
2023/05/08 03:46:36;;;;;;;26.52;23.95;;;10.10;99.90;;;;;;6128788;23;20397;-92
2023/05/08 03:49:03;;;;;;;26.85;24.40;;;10.20;99.90;;;;;;6128251;23;20737;-95
2023/05/08 03:51:30;;;;;;;26.52;23.95;;;10.20;99.90;;;;;;6152437;23;20373;-93
2023/05/08 03:53:56;;;;;;;26.17;23.67;;;10.00;99.90;;;;;;6152267;23;21205;-92
2023/05/08 03:56:21;;;;;;;25.13;22.83;;;10.10;99.90;;;;;;6151290;23;20365;-94
2023/05/08 03:58:55;;;;;;;26.43;23.80;;;10.00;99.90;;;;;;6152167;23;20369;-94
2023/05/08 04:01:49;;;;;;;25.65;23.23;;;10.10;99.90;;;;;;6130865;23;20890;-93
2023/05/08 04:04:26;;;;;;;24.98;22.58;;;10.30;99.90;;;;;;6130021;23;20817;-94
2023/05/08 04:07:16;;;;;;;26.45;23.95;;;10.00;99.90;;;;;;6128785;23;20397;-95
2023/05/08 04:10:20;;;;;;;25.45;23.05;;;10.00;99.90;;;;;;6126939;23;20381;-92
2023/05/08 04:13:12;;;;;;;25.88;23.45;;;10.10;99.90;;;;;;6128746;23;20381;-93
2023/05/08 04:19:01;;;;;;;25.43;23.10;;;10.20;99.90;;;;;;6147196;23;20383;-93
2023/05/08 04:21:30;;;;;;;25.42;23.02;;;10.30;99.90;;;;;;6123312;23;20840;-93
2023/05/08 04:23:57;;;;;;;25.10;22.70;;;10.40;99.90;;;;;;6123218;23;20856;-92
2023/05/08 04:26:23;;;;;;;24.95;22.65;;;10.40;99.90;;;;;;6124180;23;20394;-92
2023/05/08 04:29:06;;;;;;;24.83;22.42;;;9.80;99.90;;;;;;6127866;23;20820;-94
2023/05/08 04:31:34;;;;;;;25.10;22.80;;;10.30;99.90;;;;;;6150682;23;21482;-92
2023/05/08 04:34:01;;;;;;;25.15;22.83;;;10.40;99.90;;;;;;6123884;23;20367;-92
2023/05/08 04:36:30;;;;;;;24.73;22.45;;;10.50;99.90;;;;;;6121905;23;20666;-93
2023/05/08 04:38:55;;;;;;;24.70;22.50;;;10.70;99.90;;;;;;6124089;23;20402;-93
2023/05/08 04:41:21;;;;;;;24.53;22.33;;;11.30;99.90;;;;;;6146497;23;20375;-94
2023/05/08 04:43:48;;;;;;;24.25;22.00;;;10.70;99.90;;;;;;6147524;23;21270;-92
2023/05/08 04:46:13;;;;;;;24.30;22.10;;;11.10;99.90;;;;;;6122515;23;20883;-91
2023/05/08 04:48:39;;;;;;;23.05;20.85;;;10.90;99.90;;;;;;6147725;23;20386;-92
2023/05/08 04:51:05;;;;;;;23.80;21.47;;;10.70;99.90;;;;;;6152791;23;20406;-94
2023/05/08 04:53:30;;;;;;;22.80;20.57;;;10.80;99.90;;;;;;6147381;23;20399;-91
2023/05/08 04:55:57;;;;;;;22.88;20.77;;;11.10;99.90;;;;;;6124071;23;20371;-92
2023/05/08 04:58:23;;;;;;;23.00;20.80;;;11.10;99.90;;;;;;6147003;23;20841;-93
2023/05/08 05:00:48;;;;;;;21.77;19.77;;;10.90;99.90;;;;;;6151635;23;20372;-92
2023/05/08 05:03:14;;;;;;;22.90;20.80;;;11.60;99.90;;;;;;6147934;23;20406;-91
2023/05/08 05:05:40;;;;;;;22.55;20.48;;;11.50;99.90;;;;;;6147948;23;20523;-92
2023/05/08 05:08:05;;;;;;;22.35;20.35;;;11.30;99.90;;;;;;6147220;23;20378;-91
2023/05/08 05:10:31;;;;;;;21.93;19.93;;;11.40;99.90;;;;;;6147177;23;20379;-94
2023/05/08 05:12:57;;;;;;;21.35;19.52;;;11.50;99.90;;;;;;6146231;23;20367;-95
2023/05/08 05:15:29;;;;;;;21.63;19.53;;;10.90;99.90;;;;;;6137168;23;20413;-95
2023/05/08 05:17:54;;;;;;;20.67;18.88;;;11.60;99.90;;;;;;6099864;23;20431;-93
2023/05/08 05:20:20;;;;;;;20.75;18.95;;;12.30;99.90;;;;;;6092131;23;20738;-93
2023/05/08 05:22:49;;;;;;;20.95;19.02;;;11.60;99.90;;;;;;6094140;23;20388;-93
2023/05/08 05:25:15;;;;;;;19.97;18.07;;;11.70;99.90;;;;;;6094352;23;20432;-91
2023/05/08 05:27:40;;;;;;;19.60;17.90;;;11.80;99.90;;;;;;6093462;23;20916;-92
2023/05/08 05:30:07;;;;;;;19.88;18.17;;;12.20;99.90;;;;;;6090894;23;20440;-93
2023/05/08 05:32:32;;;;;;;19.63;17.75;;;12.00;99.90;;;;;;6093944;23;20373;-93
2023/05/08 05:34:58;;;;;;;18.95;17.15;;;12.40;99.90;;;;;;6092386;23;20913;-93
2023/05/08 05:37:26;;;;;;;19.77;17.97;;;12.40;99.90;;;;;;6069590;23;21022;-95
2023/05/08 05:39:52;;;;;;;18.83;17.25;;;12.60;99.90;;;;;;6091979;23;20380;-93
2023/05/08 05:42:21;;;;;;;18.63;16.93;;;12.50;99.90;;;;;;6071884;23;20373;-94
2023/05/08 05:44:46;;;;;;;18.80;17.17;;;12.40;99.90;;;;;;6094784;23;20388;-94
2023/05/08 05:47:12;;;;;;;19.27;17.48;;;12.60;99.90;;;;;;6117924;23;20699;-92
2023/05/08 05:49:41;;;;;;;18.95;17.25;;;12.40;99.90;;;;;;6093696;23;20439;-92
2023/05/08 05:52:07;;;;;;;18.92;17.10;;;12.60;99.90;;;;;;6091817;23;20379;-92
2023/05/08 05:54:33;;;;;;;18.40;16.80;;;12.80;99.90;;;;;;6093580;23;20468;-91
2023/05/08 05:56:58;;;;;;;18.80;17.10;;;12.50;99.90;;;;;;6092342;23;20376;-92
2023/05/08 05:59:24;;;;;;;18.93;17.23;;;12.80;99.90;;;;;;6093438;23;20377;-92
2023/05/08 06:01:50;;;;;;;18.33;16.73;;;12.90;99.90;;;;;;6090228;23;20380;-93
2023/05/08 06:04:16;;;;;;;17.67;16.27;;;12.70;99.90;;;;;;6097875;23;20381;-94
2023/05/08 06:06:41;;;;;;;18.45;16.92;;;12.90;99.90;;;;;;6092639;23;20503;-91
2023/05/08 06:09:16;;;;;;;18.55;16.95;;;13.10;99.90;;;;;;6070036;23;20754;-94
2023/05/08 06:11:42;;;;;;;17.27;15.87;;;13.30;99.90;;;;;;6096732;23;20380;-93
2023/05/08 06:14:08;;;;;;;17.57;16.07;;;13.80;99.90;;;;;;6097884;23;20383;-93
2023/05/08 06:16:36;;;;;;;18.98;17.38;;;13.70;99.90;;;;;;6154827;23;20377;-93
2023/05/08 06:19:07;;;;;;;17.48;15.98;;;13.50;99.90;;;;;;6152434;23;20485;-94
2023/05/08 06:21:38;;;;;;;17.33;15.77;;;13.60;99.90;;;;;;6158193;23;20388;-94
2023/05/08 06:24:05;;;;;;;17.05;15.55;;;13.90;99.90;;;;;;6150329;23;20715;-93
2023/05/08 06:26:37;;;;;;;17.10;15.60;;;13.70;99.90;;;;;;6155798;23;20920;-94
2023/05/08 06:29:02;;;;;;;17.90;16.30;;;13.80;99.90;;;;;;6154909;23;20373;-93
2023/05/08 06:31:28;;;;;;;17.75;16.15;;;14.00;99.90;;;;;;6152491;23;20372;-94
2023/05/08 06:33:53;;;;;;;18.60;16.93;;;14.10;99.90;;;;;;6151932;23;20377;-92
2023/05/08 06:36:19;;;;;;;17.40;15.90;;;13.80;99.90;;;;;;6151739;23;20680;-92
2023/05/08 06:38:45;;;;;;;17.05;15.55;;;14.00;99.90;;;;;;6151132;23;20385;-92
2023/05/08 06:41:13;;;;;;;16.57;15.17;;;14.40;99.90;;;;;;6153388;23;20384;-94
2023/05/08 06:43:42;;;;;;;17.23;15.68;;;14.20;99.90;;;;;;6156253;23;20389;-94
2023/05/08 06:46:08;;;;;;;17.83;16.25;;;14.50;99.90;;;;;;6150213;23;20451;-93
2023/05/08 06:48:34;;;;;;;17.17;15.77;;;14.60;99.90;;;;;;6152536;23;20373;-93
2023/05/08 06:51:02;;;;;;;17.27;15.88;;;14.50;99.90;;;;;;6151813;23;20366;-93
2023/05/08 06:53:42;;;;;;;16.52;15.23;;;14.80;99.90;;;;;;6157913;23;20444;-93
2023/05/08 06:56:08;;;;;;;17.00;15.50;;;15.30;99.90;;;;;;6150379;23;20913;-91
2023/05/08 06:58:34;;;;;;;17.33;15.93;;;15.30;99.90;;;;;;6151599;23;20614;-91
2023/05/08 07:01:03;;;;;;;16.88;15.48;;;15.10;99.90;;;;;;6150373;23;20380;-93
2023/05/08 07:03:28;;;;;;;16.90;15.50;;;15.50;99.90;;;;;;6152457;23;20872;-93
2023/05/08 07:05:54;;;;;;;17.60;16.20;;;15.00;99.90;;;;;;6150489;23;20476;-93
2023/05/08 07:08:20;;;;;;;16.85;15.55;;;14.80;99.90;;;;;;6150233;23;20699;-93
2023/05/08 07:10:59;;;;;;;16.42;15.13;;;15.00;99.90;;;;;;6152009;23;20369;-94
2023/05/08 07:13:25;;;;;;;16.80;15.40;;;15.10;99.90;;;;;;6128107;23;20707;-92
2023/05/08 07:15:51;;;;;;;16.20;14.80;;;15.40;99.90;;;;;;6154447;23;20381;-92
2023/05/08 07:18:16;;;;;;;16.50;15.20;;;15.30;99.90;;;;;;6148464;23;20370;-92
2023/05/08 07:20:42;;;;;;;16.63;15.23;;;15.20;99.90;;;;;;6150390;23;20707;-92
2023/05/08 07:23:08;;;;;;;17.13;15.67;;;15.40;99.90;;;;;;6153124;23;20463;-93
2023/05/08 07:25:35;;;;;;;17.10;15.70;;;15.50;99.90;;;;;;6151056;23;20394;-94
2023/05/08 07:28:01;;;;;;;17.50;16.00;;;15.30;99.90;;;;;;6125270;23;20403;-92
2023/05/08 07:30:26;;;;;;;17.33;15.93;;;15.60;99.90;;;;;;6150893;23;20995;-93
2023/05/08 07:32:54;;;;;;;17.33;15.83;;;15.30;99.90;;;;;;6151141;23;20913;-93
2023/05/08 07:35:20;;;;;;;17.23;15.82;;;15.50;99.90;;;;;;6151671;23;20369;-92
2023/05/08 07:37:48;;;;;;;17.33;15.82;;;15.70;99.90;;;;;;6155280;23;20405;-93
2023/05/08 07:40:14;;;;;;;17.10;15.70;;;15.70;99.90;;;;;;6152289;23;20368;-90
2023/05/08 07:43:03;;;;;;;17.35;15.95;;;16.00;99.90;;;;;;6154432;23;20373;-94
2023/05/08 07:45:28;;;;;;;17.58;16.00;;;15.80;99.90;;;;;;6134563;23;20420;-93
2023/05/08 07:47:56;;;;;;;16.95;15.55;;;15.90;99.90;;;;;;6153064;23;20703;-93
2023/05/08 07:50:23;;;;;;;17.88;16.48;;;16.00;99.90;;;;;;6127671;23;20423;-93
2023/05/08 07:52:50;;;;;;;18.33;16.83;;;16.00;99.90;;;;;;6131280;23;20443;-92
2023/05/08 07:55:18;;;;;;;17.23;15.73;;;16.10;99.90;;;;;;6154698;23;20858;-95
2023/05/08 07:57:44;;;;;;;18.17;16.67;;;16.20;99.90;;;;;;6151699;23;20992;-93
2023/05/08 08:00:12;;;;;;;17.77;16.33;;;16.50;99.90;;;;;;6130277;23;20429;-93
2023/05/08 08:02:38;;;;;;;16.13;14.85;;;16.50;99.90;;;;;;6127971;23;20401;-94
2023/05/08 08:05:05;;;;;;;16.15;14.85;;;16.80;99.90;;;;;;6128114;23;20400;-93
2023/05/08 08:07:42;;;;;;;16.30;15.00;;;16.60;99.90;;;;;;6131785;23;20365;-95
2023/05/08 08:10:08;;;;;;;15.67;14.37;;;16.60;99.90;;;;;;6153100;23;20397;-93
2023/05/08 08:12:34;;;;;;;16.27;14.97;;;16.70;99.90;;;;;;6153539;23;20374;-96
2023/05/08 08:14:59;;;;;;;16.55;15.10;;;16.50;99.90;;;;;;6156671;23;21036;-93
2023/05/08 08:17:37;;;;;;;16.42;15.13;;;16.90;99.90;;;;;;6157009;23;20388;-95
2023/05/08 08:20:04;;;;;;;16.38;15.05;;;17.30;99.90;;;;;;6153020;23;20374;-92
2023/05/08 08:22:29;;;;;;;16.25;14.95;;;17.00;99.90;;;;;;6128735;23;20365;-92
2023/05/08 08:24:55;;;;;;;16.60;15.10;;;17.20;99.90;;;;;;6151339;23;20369;-93
2023/05/08 08:27:21;;;;;;;16.80;15.40;;;17.40;99.90;;;;;;6152643;23;20377;-93
2023/05/08 08:29:47;;;;;;;15.95;14.70;;;17.20;99.90;;;;;;6130102;23;20381;-94
2023/05/08 08:32:21;;;;;;;16.23;14.93;;;17.50;99.90;;;;;;6156463;23;20370;-93
2023/05/08 08:35:08;;;;;;;16.33;15.02;;;17.40;99.90;;;;;;6129325;23;20497;-94
2023/05/08 08:37:33;;;;;;;15.40;14.20;;;17.50;99.90;;;;;;6153733;23;20755;-95
2023/05/08 08:40:00;;;;;;;16.10;14.80;;;17.60;99.90;;;;;;6153314;23;20377;-93
2023/05/08 08:42:26;;;;;;;15.38;14.13;;;17.60;99.90;;;;;;6153884;23;20715;-94
2023/05/08 08:44:51;;;;;;;15.38;14.07;;;17.90;99.90;;;;;;6153050;23;20378;-92
2023/05/08 08:47:21;;;;;;;15.70;14.43;;;18.00;99.90;;;;;;6154105;23;20457;-93
2023/05/08 08:49:49;;;;;;;15.95;14.65;;;17.80;99.90;;;;;;6128213;23;20373;-92
2023/05/08 08:52:36;;;;;;;15.43;14.15;;;17.80;99.90;;;;;;6126346;23;20369;-94
2023/05/08 08:55:02;;;;;;;15.57;14.20;;;18.00;99.90;;;;;;6128154;23;20464;-93
2023/05/08 08:57:32;;;;;;;15.55;14.35;;;17.90;99.90;;;;;;6127937;23;20499;-94
2023/05/08 09:00:03;;;;;;;15.50;14.20;;;17.80;99.90;;;;;;6128104;23;20376;-91
2023/05/08 09:02:30;;;;;;;15.88;14.52;;;17.90;99.90;;;;;;6127994;23;20425;-92
2023/05/08 09:04:57;;;;;;;15.45;14.20;;;17.80;99.90;;;;;;6127059;23;20865;-91
2023/05/08 09:07:23;;;;;;;16.20;14.70;;;18.20;99.90;;;;;;6127434;23;20455;-94
2023/05/08 09:09:50;;;;;;;16.48;15.07;;;18.40;99.90;;;;;;6126803;23;20365;-91
2023/05/08 09:12:16;;;;;;;16.40;15.00;;;18.60;99.90;;;;;;6128146;23;20889;-91
2023/05/08 09:14:41;;;;;;;16.00;14.70;;;18.60;99.90;;;;;;6151668;23;20748;-92
2023/05/08 09:17:08;;;;;;;16.85;15.45;;;18.50;99.90;;;;;;6152272;23;20377;-91
2023/05/08 09:19:35;;;;;;;16.77;15.38;;;19.00;99.90;;;;;;6155390;23;20372;-92
2023/05/08 09:22:02;;;;;;;16.33;15.05;;;19.20;99.90;;;;;;6127645;23;20373;-93
2023/05/08 09:24:54;;;;;;;16.60;15.30;;;19.40;99.90;;;;;;6127693;23;20384;-92
2023/05/08 09:27:21;;;;;;;15.38;14.18;;;19.60;99.90;;;;;;6151085;23;20436;-92
2023/05/08 09:30:08;;;;;;;16.25;14.95;;;20.00;99.90;;;;;;6127939;23;20436;-93
2023/05/08 09:32:36;;;;;;;16.63;15.32;;;20.10;99.90;;;;;;6126480;23;20381;-89
2023/05/08 09:35:06;;;;;;;16.48;15.18;;;20.40;99.90;;;;;;6151426;23;20377;-93
2023/05/08 09:37:32;;;;;;;16.40;14.98;;;20.70;99.90;;;;;;6150258;23;20401;-87
2023/05/08 09:40:18;;;;;;;16.17;14.93;;;21.00;99.90;;;;;;6149847;23;20426;-88
2023/05/08 09:42:45;;;;;;;16.92;15.52;;;21.20;97.80;;;;;;6126394;23;20386;-89
2023/05/08 09:45:24;;;;;;;16.55;15.25;;;21.50;95.60;;;;;;6124514;23;20389;-86
2023/05/08 09:47:49;;;;;;;17.90;16.50;;;21.60;98.60;;;;;;6127291;23;20380;-89
2023/05/08 09:50:15;;;;;;;17.30;15.90;;;21.90;96.50;;;;;;6150347;23;20378;-87
2023/05/08 09:52:46;;;;;;;17.73;16.25;;;22.10;93.50;;;;;;6150118;23;20409;-89
2023/05/08 09:55:11;;;;;;;16.83;15.43;;;22.40;93.70;;;;;;6149909;23;20427;-87
2023/05/08 09:57:50;;;;;;;16.60;15.30;;;22.30;94.90;;;;;;6174313;23;20369;-89
2023/05/08 10:00:16;;;;;;;16.97;15.67;;;22.40;93.30;;;;;;6150817;23;20380;-88
2023/05/08 10:02:59;;;;;;;17.20;15.90;;;22.40;81.50;;;;;;6175921;23;20361;-87
2023/05/08 10:05:26;;;;;;;17.65;16.30;;;22.30;80.70;;;;;;6150115;23;20393;-88
2023/05/08 10:07:52;;;;;;;17.20;15.73;;;22.10;90.60;;;;;;6126294;23;20377;-93
2023/05/08 10:10:26;;;;;;;18.15;16.75;;;22.20;91.50;;;;;;6151361;23;20403;-89
2023/05/08 10:12:53;;;;;;;18.03;16.63;;;22.30;87.90;;;;;;6151836;23;20448;-89
2023/05/08 10:15:23;;;;;;;17.58;16.20;;;22.50;94.10;;;;;;6149911;23;20785;-91
2023/05/08 10:18:06;;;;;;;18.52;17.13;;;22.90;84.20;;;;;;6128157;23;20861;-87
2023/05/08 10:20:34;;;;;;;18.00;16.60;;;23.10;95.50;;;;;;6150482;23;20373;-90
2023/05/08 10:23:02;;;;;;;17.52;16.10;;;23.20;80.50;;;;;;6150574;23;20365;-88
2023/05/08 10:25:32;;;;;;;16.83;15.43;;;23.40;70.50;;;;;;6149899;23;21208;-90
2023/05/08 10:28:25;;;;;;;18.75;17.35;;;23.60;81.20;;;;;;6150531;23;20401;-89
2023/05/08 10:30:55;;;;;;;17.83;16.42;;;24.00;81.90;;;;;;6126298;23;20782;-88
2023/05/08 10:33:30;;;;;;;17.45;16.05;;;24.20;68.50;;;;;;6151460;23;20369;-92
2023/05/08 10:35:56;;;;;;;17.50;16.10;;;24.40;72.50;;;;;;6125952;23;20465;-88
2023/05/08 10:38:23;;;;;;;17.50;16.00;;;24.60;70.90;;;;;;6149882;23;20365;-91
2023/05/08 10:40:51;;;;;;;17.20;15.88;;;24.80;61.80;;;;;;6149965;23;20412;-90
2023/05/08 10:43:18;;;;;;;16.85;15.55;;;25.10;60.60;;;;;;6149702;23;20372;-88
2023/05/08 10:45:44;;;;;;;16.88;15.57;;;25.40;62.20;;;;;;6148696;23;20393;-89
2023/05/08 10:48:39;;;;;;;17.58;16.25;;;25.60;59.40;;;;;;6152022;23;20504;-94
2023/05/08 10:51:20;;;;;;;16.55;15.27;;;25.80;56.60;;;;;;6123549;23;20373;-93
2023/05/08 10:53:58;;;;;;;16.95;15.65;;;26.00;57.20;;;;;;6125916;23;20380;-90
2023/05/08 10:56:27;;;;;;;16.50;15.20;;;26.30;56.30;;;;;;6150483;23;20374;-87
2023/05/08 10:58:57;;;;;;;17.23;15.93;;;26.50;52.60;;;;;;6175345;23;20370;-91
2023/05/08 11:01:27;;;;;;;17.27;16.05;;;26.70;54.00;;;;;;6126453;23;20771;-92
2023/05/08 11:03:54;;;;;;;17.92;16.52;;;26.60;54.90;;;;;;6124997;23;21323;-87
2023/05/08 11:06:41;;;;;;;16.38;15.18;;;26.50;52.50;;;;;;6149503;23;20429;-90
2023/05/08 11:09:07;;;;;;;17.77;16.48;;;26.60;53.60;;;;;;6125410;23;20394;-87
2023/05/08 11:11:38;;;;;;;17.65;16.35;;;26.60;50.40;;;;;;6150376;23;20391;-90
2023/05/08 11:14:06;;;;;;;17.63;16.35;;;26.40;54.70;;;;;;6126155;23;20370;-92
2023/05/08 11:16:58;;;;;;;17.67;16.37;;;26.50;55.40;;;;;;6125371;23;20409;-91
2023/05/08 11:19:25;;;;;;;17.00;15.80;;;26.70;55.20;;;;;;6126214;23;20378;-91
2023/05/08 11:22:13;;;;;;;16.33;15.02;;;26.90;53.00;;;;;;6126955;23;20373;-92
2023/05/08 11:24:45;;;;;;;16.33;15.02;;;26.90;51.20;;;;;;6149299;23;20378;-89
2023/05/08 11:27:11;;;;;;;15.98;14.68;;;26.70;50.40;;;;;;6150004;23;20931;-89
2023/05/08 11:29:37;;;;;;;16.03;14.73;;;26.70;51.90;;;;;;6148811;23;20455;-89
2023/05/08 11:32:03;;;;;;;16.40;15.10;;;26.90;52.00;;;;;;6150091;23;20397;-90
2023/05/08 11:34:41;;;;;;;17.17;15.88;;;27.30;51.70;;;;;;6175510;23;20440;-88
2023/05/08 11:37:20;;;;;;;17.27;15.97;;;27.70;51.80;;;;;;6175487;23;20755;-90
2023/05/08 11:39:47;;;;;;;15.75;14.45;;;27.70;50.10;;;;;;6125443;23;20381;-89
2023/05/08 11:42:25;;;;;;;16.92;15.63;;;27.60;50.90;;;;;;6149555;23;20376;-88
2023/05/08 11:45:04;;;;;;;16.20;14.82;;;27.70;48.80;;;;;;6150267;23;20743;-89
2023/05/08 11:47:37;;;;;;;17.30;15.90;;;27.60;50.90;;;;;;6149296;23;20385;-88
2023/05/08 11:50:07;;;;;;;17.70;16.37;;;27.60;51.00;;;;;;6175904;23;20707;-93
2023/05/08 11:52:35;;;;;;;16.48;15.20;;;27.70;51.40;;;;;;6125770;23;20373;-89
2023/05/08 11:55:05;;;;;;;15.68;14.52;;;27.70;51.30;;;;;;6149651;23;20924;-89
2023/05/08 11:57:32;;;;;;;16.48;15.27;;;27.70;49.60;;;;;;6126280;23;20384;-89
2023/05/08 12:00:03;;;;;;;16.42;15.15;;;27.30;49.30;;;;;;6125375;23;20377;-89
2023/05/08 12:02:44;;;;;;;17.17;15.88;;;27.10;50.40;;;;;;6150471;23;20389;-91
2023/05/08 12:05:10;;;;;;;17.00;15.70;;;26.80;54.40;;;;;;6175931;23;20385;-89
2023/05/08 12:07:46;;;;;;;16.80;15.50;;;26.50;50.30;;;;;;6148952;23;20858;-90
2023/05/08 12:10:15;;;;;;;18.33;16.93;;;26.20;53.60;;;;;;6124997;23;20460;-87
2023/05/08 12:12:42;;;;;;;17.23;15.82;;;25.90;52.20;;;;;;6149774;23;20373;-89
2023/05/08 12:15:09;;;;;;;17.77;16.30;;;25.60;58.40;;;;;;6150486;23;20747;-90
2023/05/08 12:17:36;;;;;;;17.60;16.20;;;25.60;59.40;;;;;;6124855;23;20465;-90
2023/05/08 12:20:16;;;;;;;18.02;16.63;;;25.40;57.40;;;;;;6150365;23;20446;-88
2023/05/08 12:22:49;;;;;;;18.35;16.85;;;25.30;60.30;;;;;;6126895;23;20878;-89
2023/05/08 12:25:16;;;;;;;18.10;16.70;;;25.10;61.10;;;;;;6126641;23;21040;-90
2023/05/08 12:27:42;;;;;;;17.77;16.38;;;25.20;60.00;;;;;;6128222;23;20373;-92
2023/05/08 12:30:10;;;;;;;18.13;16.70;;;25.00;63.10;;;;;;6126762;23;20404;-86
2023/05/08 12:32:38;;;;;;;17.80;16.40;;;24.90;61.90;;;;;;6151191;23;20399;-90
2023/05/08 12:35:07;;;;;;;17.58;16.17;;;24.90;64.00;;;;;;6150678;23;20384;-87
2023/05/08 12:37:33;;;;;;;17.90;16.50;;;24.90;64.90;;;;;;6150635;23;20447;-87
2023/05/08 12:39:59;;;;;;;17.37;15.97;;;25.00;69.20;;;;;;6177093;23;20727;-89
2023/05/08 12:42:49;;;;;;;18.48;16.98;;;25.50;64.10;;;;;;6149866;23;20448;-90
2023/05/08 12:45:20;;;;;;;18.23;16.73;;;25.30;61.70;;;;;;6126893;23;20727;-90
2023/05/08 12:47:50;;;;;;;19.57;17.97;;;25.40;61.50;;;;;;6126453;23;20835;-92
2023/05/08 12:50:19;;;;;;;17.70;16.30;;;25.80;61.50;;;;;;6126745;23;20396;-88
2023/05/08 12:52:46;;;;;;;17.20;15.87;;;25.60;59.60;;;;;;6150666;23;20460;-88
2023/05/08 12:55:25;;;;;;;17.35;15.95;;;25.80;64.90;;;;;;6151452;23;20377;-91
2023/05/08 12:58:03;;;;;;;17.65;16.13;;;25.90;60.00;;;;;;6127745;23;20839;-89